Schneifelwetter: Wetterstation Hallschlag, 537 m . NN
Wetterdaten: Freitag, 17.12.2010
Datum Zeit Temp. A. Feuchte A. Luftdruck Regen Wind Richtung Richtung Sonnenschein Helligkeit T Regen Taupunkt Windchill
17.12.2010 00:11 -3,9 C 97 % 991 hPa 0,0 l/m 14,1 km/h (3 Bft) N22.5 360 0 min 0 lux 0,00 min -4,3 C -11,1 C
17.12.2010 00:26 -3,9 C 97 % 991 hPa 0,0 l/m 22,5 km/h (4 Bft) N-NO67.5 15 0 min 0 lux 0,00 min -4,3 C -15,9 C
17.12.2010 00:41 -4,0 C 97 % 991 hPa 0,0 l/m 22,1 km/h (4 Bft) N-NO22.5 20 0 min 0 lux 0,00 min -4,4 C -15,8 C
17.12.2010 00:56 -4,1 C 97 % 991 hPa 0,0 l/m 20,0 km/h (4 Bft) N22.5 10 0 min 0 lux 0,00 min -4,5 C -14,9 C
17.12.2010 01:11 -4,1 C 97 % 992 hPa 0,0 l/m 22,9 km/h (4 Bft) N-NO67.5 25 0 min 0 lux 0,00 min -4,5 C -16,4 C
17.12.2010 01:26 -4,2 C 96 % 992 hPa 0,0 l/m 22,2 km/h (4 Bft) N45 5 0 min 0 lux 0,00 min -4,7 C -16,2 C
17.12.2010 01:41 -4,3 C 96 % 992 hPa 0,0 l/m 22,3 km/h (4 Bft) N22.5 10 0 min 0 lux 0,00 min -4,8 C -16,3 C
17.12.2010 01:56 -4,4 C 96 % 992 hPa 0,0 l/m 22,5 km/h (4 Bft) N-NO67.5 15 0 min 0 lux 0,00 min -4,9 C -16,6 C
17.12.2010 02:11 -4,4 C 96 % 992 hPa 0,0 l/m 28,6 km/h (4 Bft) N45 10 0 min 0 lux 0,00 min -4,9 C -19,1 C
17.12.2010 02:26 -4,5 C 95 % 992 hPa 0,0 l/m 19,0 km/h (3 Bft) N45 5 0 min 0 lux 0,00 min -5,2 C -14,9 C
17.12.2010 02:41 -4,6 C 95 % 992 hPa 0,0 l/m 21,4 km/h (4 Bft) N-NO22.5 15 0 min 0 lux 0,00 min -5,3 C -16,3 C
17.12.2010 02:56 -4,7 C 95 % 992 hPa 0,0 l/m 17,1 km/h (3 Bft) N22.5 10 0 min 0 lux 0,00 min -5,4 C -14,0 C
17.12.2010 03:11 -4,8 C 95 % 992 hPa 0,0 l/m 22,0 km/h (4 Bft) N22.5 5 0 min 0 lux 0,00 min -5,5 C -16,9 C
17.12.2010 03:26 -4,9 C 94 % 992 hPa 0,0 l/m 20,0 km/h (4 Bft) N-NO22.5 15 0 min 0 lux 0,00 min -5,7 C -16,0 C
17.12.2010 03:41 -5,1 C 94 % 992 hPa 0,0 l/m 16,9 km/h (3 Bft) N-NO45 15 0 min 0 lux 0,00 min -5,9 C -14,4 C
17.12.2010 03:56 -5,5 C 94 % 992 hPa 0,0 l/m 16,5 km/h (3 Bft) N67.5 355 0 min 0 lux 0,00 min -6,3 C -14,7 C
17.12.2010 04:11 -5,6 C 95 % 992 hPa 0,0 l/m 4,2 km/h (1 Bft) N-NO 15 0 min 0 lux 0,00 min -6,3 C -5,6 C
17.12.2010 04:26 -5,9 C 94 % 992 hPa 0,0 l/m 8,2 km/h (2 Bft) N22.5 350 0 min 0 lux 0,00 min -6,7 C -8,1 C
17.12.2010 04:41 -6,0 C 94 % 992 hPa 0,0 l/m 11,6 km/h (2 Bft) N-NW22.5 340 0 min 0 lux 0,00 min -6,8 C -11,6 C
17.12.2010 04:56 -6,2 C 94 % 992 hPa 0,0 l/m 10,5 km/h (2 Bft) N45 355 0 min 0 lux 0,00 min -7,0 C -10,8 C
17.12.2010 05:11 -6,6 C 93 % 991 hPa 0,0 l/m 11,3 km/h (2 Bft) N-NW45 330 0 min 0 lux 0,00 min -7,5 C -12,0 C
17.12.2010 05:26 -6,8 C 94 % 991 hPa 0,0 l/m 7,6 km/h (2 Bft) N-NW22.5 335 0 min 0 lux 0,00 min -7,6 C -8,3 C
17.12.2010 05:41 -7,2 C 94 % 992 hPa 0,0 l/m 7,5 km/h (2 Bft) N 355 0 min 0 lux 0,00 min -8,0 C -8,6 C
17.12.2010 05:56 -7,5 C 94 % 991 hPa 0,0 l/m 10,8 km/h (2 Bft) N-NO22.5 15 0 min 0 lux 0,00 min -8,3 C -12,5 C
17.12.2010 06:11 -8,3 C 94 % 991 hPa 0,0 l/m 2,6 km/h (1 Bft) N 360 0 min 0 lux 0,00 min -9,1 C -8,3 C
17.12.2010 06:26 -9,0 C 93 % 991 hPa 0,0 l/m 4,6 km/h (1 Bft) N 360 0 min 0 lux 0,00 min -9,9 C -9,0 C
17.12.2010 06:41 -10,0 C 92 % 991 hPa 0,0 l/m 3,4 km/h (1 Bft) N 360 0 min 0 lux 0,00 min -11,0 C -10,0 C
17.12.2010 06:56 -10,8 C 93 % 991 hPa 0,0 l/m 5,6 km/h (1 Bft) N 360 0 min 0 lux 0,00 min -11,7 C -10,8 C
17.12.2010 07:10 -10,7 C 94 % 992 hPa 0,0 l/m 6,9 km/h (2 Bft) N 360 0 min 0 lux 0,00 min -11,5 C -11,4 C
17.12.2010 07:25 -11,2 C 94 % 992 hPa 0,0 l/m 6,3 km/h (2 Bft) N 360 0 min 0 lux 0,00 min -12,0 C -11,2 C
17.12.2010 07:40 -10,9 C 95 % 992 hPa 0,0 l/m 5,2 km/h (1 Bft) N 360 0 min 0 lux 0,00 min -11,5 C -10,9 C
17.12.2010 08:01 -9,9 C 96 % 992 hPa 0,0 l/m 9,4 km/h (2 Bft) W22.5 270 0 min 0 lux 0,00 min -10,4 C -13,7 C
17.12.2010 08:17 -9,1 C 96 % 992 hPa 0,0 l/m 5,6 km/h (1 Bft) W-SW 245 0 min 102 lux 0,00 min -9,6 C -9,1 C
17.12.2010 08:32 -8,2 C 97 % 992 hPa 0,0 l/m 8,7 km/h (2 Bft) W22.5 270 0 min 411 lux 0,00 min -8,6 C -11,1 C
17.12.2010 08:47 -7,9 C 96 % 992 hPa 0,0 l/m 5,6 km/h (1 Bft) W 275 0 min 1,13 klux 0,00 min -8,4 C -7,9 C
17.12.2010 09:02 -7,7 C 96 % 992 hPa 0,0 l/m 9,7 km/h (2 Bft) W22.5 265 0 min 2,00 klux 0,00 min -8,2 C -11,6 C
17.12.2010 09:16 -7,7 C 95 % 992 hPa 0,0 l/m 10,8 km/h (2 Bft) W22.5 260 0 min 3,60 klux 0,00 min -8,4 C -12,8 C
17.12.2010 09:31 -7,5 C 96 % 992 hPa 0,0 l/m 9,8 km/h (2 Bft) W22.5 275 0 min 6,89 klux 0,00 min -8,0 C -11,5 C
17.12.2010 09:46 -7,2 C 96 % 992 hPa 0,0 l/m 16,3 km/h (3 Bft) W22.5 270 0 min 7,25 klux 0,00 min -7,7 C -16,6 C
17.12.2010 10:02 -6,5 C 96 % 992 hPa 0,0 l/m 11,8 km/h (2 Bft) W 260 0 min 9,1 klux 0,00 min -7,0 C -12,3 C
17.12.2010 10:17 -6,3 C 96 % 992 hPa 0,0 l/m 20,6 km/h (4 Bft) W22.5 260 0 min 9,9 klux 0,00 min -6,8 C -18,1 C
17.12.2010 10:32 -6,2 C 95 % 993 hPa 0,0 l/m 23,6 km/h (4 Bft) W22.5 265 0 min 13,9 klux 0,00 min -6,9 C -19,5 C
17.12.2010 10:46 -6,3 C 95 % 993 hPa 0,0 l/m 12,1 km/h (2 Bft) W22.5 265 0 min 9,1 klux 0,00 min -7,0 C -12,3 C
17.12.2010 11:01 -6,3 C 95 % 993 hPa 0,0 l/m 10,1 km/h (2 Bft) W-SW 255 0 min 8,72 klux 0,00 min -7,0 C -10,5 C
17.12.2010 11:16 -6,0 C 95 % 993 hPa 0,0 l/m 10,0 km/h (2 Bft) W-SW22.5 250 0 min 6,16 klux 0,00 min -6,7 C -10,1 C
17.12.2010 11:32 -5,7 C 96 % 993 hPa 0,0 l/m 11,8 km/h (2 Bft) W-SW22.5 255 0 min 7,53 klux 0,00 min -6,2 C -11,4 C
17.12.2010 11:47 -5,1 C 96 % 993 hPa 0,0 l/m 10,5 km/h (2 Bft) SW22.5 235 0 min 14,1 klux 0,00 min -5,6 C -9,6 C
17.12.2010 12:02 -4,6 C 96 % 992 hPa 0,0 l/m 4,6 km/h (1 Bft) S-SW 195 0 min 13,3 klux 0,00 min -5,1 C -4,6 C
17.12.2010 12:17 -4,4 C 96 % 992 hPa 0,0 l/m 9,4 km/h (2 Bft) SW22.5 225 0 min 10,8 klux 0,00 min -4,9 C -7,7 C
17.12.2010 12:31 -4,0 C 95 % 992 hPa 0,0 l/m 14,0 km/h (3 Bft) W-SW22.5 240 0 min 32,6 klux 0,00 min -4,7 C -11,1 C
17.12.2010 12:46 -3,1 C 95 % 993 hPa 0,0 l/m 16,2 km/h (3 Bft) W-SW22.5 255 0 min 28,2 klux 0,00 min -3,8 C -11,5 C
17.12.2010 13:01 -3,3 C 94 % 993 hPa 0,0 l/m 11,6 km/h (2 Bft) W-SW22.5 255 0 min 14,5 klux 0,00 min -4,1 C -8,5 C
17.12.2010 13:17 -3,8 C 92 % 993 hPa 0,0 l/m 20,5 km/h (4 Bft) W22.5 260 0 min 12,8 klux 0,00 min -4,9 C -14,8 C
17.12.2010 13:32 -4,0 C 91 % 993 hPa 0,0 l/m 16,7 km/h (3 Bft) W45 265 0 min 13,8 klux 0,00 min -5,2 C -12,9 C
17.12.2010 13:47 -4,2 C 91 % 993 hPa 0,0 l/m 16,0 km/h (3 Bft) W45 275 0 min 12,0 klux 0,00 min -5,4 C -12,7 C
17.12.2010 14:01 -4,2 C 92 % 993 hPa 0,0 l/m 25,0 km/h (4 Bft) W-SW45 255 0 min 11,5 klux 0,00 min -5,3 C -17,4 C
17.12.2010 14:16 -3,9 C 92 % 993 hPa 0,0 l/m 16,3 km/h (3 Bft) W22.5 260 0 min 16,8 klux 0,00 min -5,0 C -12,6 C
17.12.2010 14:31 -3,8 C 91 % 993 hPa 0,0 l/m 18,5 km/h (3 Bft) W-SW22.5 255 0 min 20,4 klux 0,00 min -5,0 C -13,7 C
17.12.2010 14:47 -3,9 C 91 % 993 hPa 0,0 l/m 21,0 km/h (4 Bft) W-SW22.5 255 0 min 16,8 klux 0,00 min -5,1 C -15,2 C
17.12.2010 15:02 -4,0 C 91 % 993 hPa 0,0 l/m 15,9 km/h (3 Bft) W22.5 260 0 min 12,3 klux 0,00 min -5,2 C -12,4 C
17.12.2010 15:17 -4,0 C 91 % 993 hPa 0,0 l/m 18,6 km/h (3 Bft) W22.5 260 0 min 12,8 klux 0,00 min -5,2 C -14,0 C
17.12.2010 15:32 -4,2 C 91 % 993 hPa 0,0 l/m 12,1 km/h (2 Bft) W-SW22.5 255 0 min 8,36 klux 0,00 min -5,4 C -9,9 C
17.12.2010 15:46 -4,6 C 91 % 993 hPa 0,0 l/m 19,6 km/h (3 Bft) W22.5 265 0 min 6,13 klux 0,00 min -5,8 C -15,4 C
17.12.2010 16:01 -5,1 C 91 % 993 hPa 0,0 l/m 20,3 km/h (4 Bft) W22.5 265 0 min 3,47 klux 0,00 min -6,3 C -16,4 C
17.12.2010 16:16 -5,6 C 91 % 993 hPa 0,0 l/m 18,5 km/h (3 Bft) W22.5 260 0 min 2,00 klux 0,00 min -6,8 C -16,0 C
17.12.2010 16:32 -6,3 C 91 % 993 hPa 0,0 l/m 16,2 km/h (3 Bft) W22.5 270 0 min 1,32 klux 0,00 min -7,5 C -15,4 C
17.12.2010 16:47 -7,0 C 91 % 993 hPa 0,0 l/m 6,6 km/h (2 Bft) W 265 0 min 468 lux 0,00 min -8,2 C -7,2 C
17.12.2010 17:02 -7,1 C 92 % 993 hPa 0,0 l/m 10,1 km/h (2 Bft) W-SW22.5 255 0 min 94 lux 0,00 min -8,2 C -11,4 C
17.12.2010 17:17 -7,2 C 93 % 993 hPa 0,0 l/m 10,8 km/h (2 Bft) W-SW 250 0 min 35 lux 0,00 min -8,1 C -12,2 C
17.12.2010 17:31 -7,4 C 93 % 993 hPa 0,0 l/m 8,6 km/h (2 Bft) W-SW 255 0 min 7 lux 0,00 min -8,3 C -10,1 C
17.12.2010 17:46 -7,9 C 92 % 993 hPa 0,0 l/m 7,9 km/h (2 Bft) W-SW 255 0 min 0 lux 0,00 min -9,0 C -9,8 C
17.12.2010 18:01 -8,3 C 92 % 993 hPa 0,0 l/m 7,7 km/h (2 Bft) W-SW 250 0 min 0 lux 0,00 min -9,4 C -10,0 C
17.12.2010 18:17 -8,9 C 92 % 993 hPa 0,0 l/m 8,1 km/h (2 Bft) W-SW 250 0 min 0 lux 0,00 min -10,0 C -11,1 C
17.12.2010 18:32 -9,2 C 93 % 993 hPa 0,0 l/m 6,9 km/h (2 Bft) W-SW 245 0 min 0 lux 0,00 min -10,1 C -9,9 C
17.12.2010 18:47 -9,5 C 93 % 993 hPa 0,0 l/m 11,5 km/h (2 Bft) W-SW22.5 255 0 min 0 lux 0,00 min -10,4 C -15,5 C
17.12.2010 19:02 -9,6 C 93 % 993 hPa 0,0 l/m 9,8 km/h (2 Bft) W-SW22.5 255 0 min 0 lux 0,00 min -10,5 C -13,8 C
17.12.2010 19:16 -9,6 C 93 % 993 hPa 0,0 l/m 10,5 km/h (2 Bft) W-SW22.5 255 0 min 0 lux 0,00 min -10,5 C -14,6 C
17.12.2010 19:31 -9,8 C 93 % 993 hPa 0,0 l/m 9,8 km/h (2 Bft) W-SW22.5 255 0 min 0 lux 0,00 min -10,7 C -14,1 C
17.12.2010 19:47 -9,6 C 94 % 993 hPa 0,0 l/m 16,0 km/h (3 Bft) W-SW22.5 250 0 min 0 lux 0,00 min -10,4 C -19,4 C
17.12.2010 20:02 -9,7 C 94 % 993 hPa 0,0 l/m 14,8 km/h (3 Bft) W-SW45 250 0 min 0 lux 0,00 min -10,5 C -18,6 C
17.12.2010 20:17 -9,7 C 94 % 993 hPa 0,0 l/m 18,6 km/h (3 Bft) W-SW22.5 250 0 min 0 lux 0,00 min -10,5 C -21,3 C
17.12.2010 20:32 -9,5 C 94 % 993 hPa 0,0 l/m 14,5 km/h (3 Bft) W-SW22.5 250 0 min 0 lux 0,00 min -10,3 C -18,1 C
17.12.2010 20:46 -9,4 C 94 % 993 hPa 0,0 l/m 12,8 km/h (3 Bft) SW22.5 215 0 min 0 lux 0,00 min -10,2 C -16,6 C
17.12.2010 21:01 -9,5 C 94 % 993 hPa 0,0 l/m 15,1 km/h (3 Bft) SW22.5 220 0 min 0 lux 0,00 min -10,3 C -18,6 C
17.12.2010 21:16 -9,5 C 94 % 993 hPa 0,0 l/m 15,0 km/h (3 Bft) W-SW22.5 255 0 min 0 lux 0,00 min -10,3 C -18,5 C
17.12.2010 21:32 -9,9 C 94 % 993 hPa 0,0 l/m 11,3 km/h (2 Bft) W-SW 250 0 min 0 lux 0,00 min -10,7 C -15,7 C
17.12.2010 21:47 -10,2 C 94 % 993 hPa 0,0 l/m 5,2 km/h (1 Bft) W-SW 250 0 min 0 lux 0,00 min -11,0 C -10,2 C
17.12.2010 22:02 -10,6 C 94 % 993 hPa 0,0 l/m 0,5 km/h (0 Bft) W 260 0 min 0 lux 0,00 min -11,4 C -10,6 C
17.12.2010 22:17 -10,8 C 94 % 993 hPa 0,0 l/m 0,0 km/h (0 Bft) W 260 0 min 0 lux 0,00 min -11,6 C -10,8 C
17.12.2010 22:31 -10,8 C 94 % 993 hPa 0,0 l/m 1,9 km/h (1 Bft) W 260 0 min 0 lux 0,00 min -11,6 C -10,8 C
17.12.2010 22:46 -10,7 C 95 % 993 hPa 0,0 l/m 0,3 km/h (0 Bft) W 260 0 min 0 lux 0,00 min -11,3 C -10,7 C
17.12.2010 23:01 -10,7 C 94 % 993 hPa 0,0 l/m 0,0 km/h (0 Bft) W 260 0 min 0 lux 0,00 min -11,5 C -10,7 C
17.12.2010 23:17 -10,7 C 95 % 993 hPa 0,0 l/m 0,0 km/h (0 Bft) W 260 0 min 0 lux 0,00 min -11,3 C -10,7 C
17.12.2010 23:32 -10,6 C 95 % 993 hPa 0,0 l/m 8,1 km/h (2 Bft) S-SW45 205 0 min 0 lux 0,00 min -11,2 C -12,9 C
17.12.2010 23:47 -9,9 C 96 % 993 hPa 0,0 l/m 19,5 km/h (3 Bft) SW45 225 0 min 0 lux 0,00 min -10,4 C -22,1 C
_ Min-Zeit 07:25 13:32 00:11 - 22:17 - - - - - 07:25 23:47
Minimum _ -11,2 C 91 % 991 hPa - 0,0 km/h (0 Bft) - - - - - -12,0 C -22,1 C
_ Max-Zeit 12:46 00:11 10:32 00:11 02:11 - - 00:11 12:31 00:11 12:46 12:02
Maximum _ -3,1 C 97 % 993 hPa 0,0 l/m 28,6 km/h
N (4 Bft)
- - 0 min 32,6 klux 0,00 min -3,8 C -4,6 C
Durchschnitt _ -7,0 C 94 % 993 hPa #0,0 l/m 12,6 km/h (3 Bft) W-SW - #0 min. 3,69 klux #0 min. -7,8 C -13,0 C